sensor_id;sensor_type;location;lat;lon;timestamp;P1;durP1;ratioP1;P2;durP2;ratioP2
63050;SDS011;49136;47.416;19.402;2022-11-18T00:01:08;30.33;;;11.95;;
63050;SDS011;49136;47.416;19.402;2022-11-18T00:03:36;26.08;;;11.35;;
63050;SDS011;49136;47.416;19.402;2022-11-18T00:06:01;39.75;;;16.73;;
63050;SDS011;49136;47.416;19.402;2022-11-18T00:08:27;33.85;;;14.15;;
63050;SDS011;49136;47.416;19.402;2022-11-18T00:10:52;39.78;;;15.07;;
63050;SDS011;49136;47.416;19.402;2022-11-18T00:13:18;31.70;;;13.30;;
63050;SDS011;49136;47.416;19.402;2022-11-18T00:16:03;32.30;;;13.35;;
63050;SDS011;49136;47.416;19.402;2022-11-18T00:18:31;27.73;;;12.60;;
63050;SDS011;49136;47.416;19.402;2022-11-18T00:21:00;32.63;;;15.85;;
63050;SDS011;49136;47.416;19.402;2022-11-18T00:23:27;35.33;;;13.00;;
63050;SDS011;49136;47.416;19.402;2022-11-18T00:25:53;30.10;;;12.45;;
63050;SDS011;49136;47.416;19.402;2022-11-18T00:28:18;38.05;;;16.15;;
63050;SDS011;49136;47.416;19.402;2022-11-18T00:30:44;37.83;;;15.05;;
63050;SDS011;49136;47.416;19.402;2022-11-18T00:33:09;40.45;;;14.15;;
63050;SDS011;49136;47.416;19.402;2022-11-18T00:35:34;37.08;;;14.63;;
63050;SDS011;49136;47.416;19.402;2022-11-18T00:38:00;34.80;;;14.93;;
63050;SDS011;49136;47.416;19.402;2022-11-18T00:40:25;28.73;;;11.77;;
63050;SDS011;49136;47.416;19.402;2022-11-18T00:42:50;35.10;;;12.70;;
63050;SDS011;49136;47.416;19.402;2022-11-18T00:45:19;32.28;;;11.70;;
63050;SDS011;49136;47.416;19.402;2022-11-18T00:47:46;36.95;;;13.10;;
63050;SDS011;49136;47.416;19.402;2022-11-18T00:50:11;29.02;;;10.60;;
63050;SDS011;49136;47.416;19.402;2022-11-18T00:52:37;33.45;;;14.18;;
63050;SDS011;49136;47.416;19.402;2022-11-18T00:55:02;26.40;;;12.55;;
63050;SDS011;49136;47.416;19.402;2022-11-18T00:57:28;24.15;;;10.88;;
63050;SDS011;49136;47.416;19.402;2022-11-18T00:59:54;23.75;;;11.57;;
63050;SDS011;49136;47.416;19.402;2022-11-18T01:02:19;25.35;;;10.00;;
63050;SDS011;49136;47.416;19.402;2022-11-18T01:04:44;25.50;;;10.55;;
63050;SDS011;49136;47.416;19.402;2022-11-18T01:07:10;34.25;;;13.25;;
63050;SDS011;49136;47.416;19.402;2022-11-18T01:09:35;33.38;;;11.75;;
63050;SDS011;49136;47.416;19.402;2022-11-18T01:12:00;33.47;;;12.85;;
63050;SDS011;49136;47.416;19.402;2022-11-18T01:14:44;26.70;;;10.60;;
63050;SDS011;49136;47.416;19.402;2022-11-18T01:17:10;33.22;;;13.43;;
63050;SDS011;49136;47.416;19.402;2022-11-18T01:19:35;30.25;;;13.45;;
63050;SDS011;49136;47.416;19.402;2022-11-18T01:22:01;29.42;;;11.35;;
63050;SDS011;49136;47.416;19.402;2022-11-18T01:24:30;28.40;;;11.98;;
63050;SDS011;49136;47.416;19.402;2022-11-18T01:26:57;30.35;;;10.35;;
63050;SDS011;49136;47.416;19.402;2022-11-18T01:29:23;29.20;;;13.05;;
63050;SDS011;49136;47.416;19.402;2022-11-18T01:31:48;28.52;;;12.38;;
63050;SDS011;49136;47.416;19.402;2022-11-18T01:34:14;31.92;;;12.52;;
63050;SDS011;49136;47.416;19.402;2022-11-18T01:36:39;32.60;;;12.40;;
63050;SDS011;49136;47.416;19.402;2022-11-18T01:39:04;36.30;;;12.32;;
63050;SDS011;49136;47.416;19.402;2022-11-18T01:41:30;35.65;;;13.40;;
63050;SDS011;49136;47.416;19.402;2022-11-18T01:43:56;31.67;;;13.45;;
63050;SDS011;49136;47.416;19.402;2022-11-18T01:46:25;37.05;;;13.85;;
63050;SDS011;49136;47.416;19.402;2022-11-18T01:49:16;26.83;;;13.30;;
63050;SDS011;49136;47.416;19.402;2022-11-18T01:51:41;35.22;;;13.25;;
63050;SDS011;49136;47.416;19.402;2022-11-18T01:54:13;38.92;;;17.35;;
63050;SDS011;49136;47.416;19.402;2022-11-18T01:56:45;35.00;;;12.40;;
63050;SDS011;49136;47.416;19.402;2022-11-18T01:59:20;32.13;;;13.85;;
63050;SDS011;49136;47.416;19.402;2022-11-18T02:01:49;35.60;;;12.43;;
63050;SDS011;49136;47.416;19.402;2022-11-18T02:04:14;36.80;;;13.27;;
63050;SDS011;49136;47.416;19.402;2022-11-18T02:06:41;47.40;;;13.95;;
63050;SDS011;49136;47.416;19.402;2022-11-18T02:09:08;44.13;;;15.73;;
63050;SDS011;49136;47.416;19.402;2022-11-18T02:11:34;35.45;;;13.63;;
63050;SDS011;49136;47.416;19.402;2022-11-18T02:14:15;35.83;;;12.60;;
63050;SDS011;49136;47.416;19.402;2022-11-18T02:16:48;33.65;;;13.07;;
63050;SDS011;49136;47.416;19.402;2022-11-18T02:22:28;23.80;;;9.43;;
63050;SDS011;49136;47.416;19.402;2022-11-18T02:31:22;19.67;;;7.35;;
63050;SDS011;49136;47.416;19.402;2022-11-18T02:34:39;18.27;;;8.25;;
63050;SDS011;49136;47.416;19.402;2022-11-18T02:37:25;23.90;;;10.52;;
63050;SDS011;49136;47.416;19.402;2022-11-18T02:40:11;35.53;;;11.02;;
63050;SDS011;49136;47.416;19.402;2022-11-18T02:42:40;24.65;;;8.35;;
63050;SDS011;49136;47.416;19.402;2022-11-18T02:45:09;19.15;;;9.65;;
63050;SDS011;49136;47.416;19.402;2022-11-18T02:47:39;16.30;;;7.03;;
63050;SDS011;49136;47.416;19.402;2022-11-18T02:50:08;32.03;;;8.60;;
63050;SDS011;49136;47.416;19.402;2022-11-18T02:52:37;20.02;;;7.82;;
63050;SDS011;49136;47.416;19.402;2022-11-18T02:55:05;24.70;;;7.53;;
63050;SDS011;49136;47.416;19.402;2022-11-18T02:57:35;20.90;;;7.43;;
63050;SDS011;49136;47.416;19.402;2022-11-18T03:00:03;25.60;;;8.50;;
63050;SDS011;49136;47.416;19.402;2022-11-18T03:02:38;21.67;;;7.82;;
63050;SDS011;49136;47.416;19.402;2022-11-18T03:05:05;16.67;;;7.68;;
63050;SDS011;49136;47.416;19.402;2022-11-18T03:07:40;29.77;;;9.50;;
63050;SDS011;49136;47.416;19.402;2022-11-18T03:10:10;16.70;;;7.88;;
63050;SDS011;49136;47.416;19.402;2022-11-18T03:12:39;18.83;;;8.93;;
63050;SDS011;49136;47.416;19.402;2022-11-18T03:15:39;24.17;;;8.55;;
63050;SDS011;49136;47.416;19.402;2022-11-18T03:23:53;20.95;;;6.35;;
63050;SDS011;49136;47.416;19.402;2022-11-18T03:26:24;30.33;;;8.35;;
63050;SDS011;49136;47.416;19.402;2022-11-18T03:31:41;12.57;;;6.03;;
63050;SDS011;49136;47.416;19.402;2022-11-18T03:34:15;21.52;;;7.78;;
63050;SDS011;49136;47.416;19.402;2022-11-18T03:36:46;18.92;;;8.65;;
63050;SDS011;49136;47.416;19.402;2022-11-18T03:39:14;18.98;;;8.38;;
63050;SDS011;49136;47.416;19.402;2022-11-18T03:41:44;21.40;;;8.32;;
63050;SDS011;49136;47.416;19.402;2022-11-18T03:44:15;14.75;;;6.78;;
63050;SDS011;49136;47.416;19.402;2022-11-18T03:46:46;22.48;;;9.52;;
63050;SDS011;49136;47.416;19.402;2022-11-18T03:49:19;17.77;;;8.43;;
63050;SDS011;49136;47.416;19.402;2022-11-18T03:51:53;26.67;;;8.43;;
63050;SDS011;49136;47.416;19.402;2022-11-18T03:54:23;32.22;;;9.48;;
63050;SDS011;49136;47.416;19.402;2022-11-18T03:57:12;34.55;;;10.07;;
63050;SDS011;49136;47.416;19.402;2022-11-18T03:59:47;23.92;;;9.35;;
63050;SDS011;49136;47.416;19.402;2022-11-18T04:02:18;33.00;;;9.07;;
63050;SDS011;49136;47.416;19.402;2022-11-18T04:04:47;23.13;;;7.38;;
63050;SDS011;49136;47.416;19.402;2022-11-18T04:13:01;26.15;;;10.40;;
63050;SDS011;49136;47.416;19.402;2022-11-18T04:15:30;21.48;;;8.13;;
63050;SDS011;49136;47.416;19.402;2022-11-18T04:17:56;21.10;;;8.95;;
63050;SDS011;49136;47.416;19.402;2022-11-18T04:20:22;21.85;;;8.70;;
63050;SDS011;49136;47.416;19.402;2022-11-18T04:22:48;23.38;;;8.98;;
63050;SDS011;49136;47.416;19.402;2022-11-18T04:25:14;23.10;;;6.97;;
63050;SDS011;49136;47.416;19.402;2022-11-18T04:27:39;24.38;;;7.53;;
63050;SDS011;49136;47.416;19.402;2022-11-18T04:30:05;28.95;;;10.00;;
63050;SDS011;49136;47.416;19.402;2022-11-18T04:32:31;20.67;;;8.45;;
63050;SDS011;49136;47.416;19.402;2022-11-18T04:34:57;26.65;;;9.15;;
63050;SDS011;49136;47.416;19.402;2022-11-18T04:37:22;18.95;;;6.95;;
63050;SDS011;49136;47.416;19.402;2022-11-18T04:39:48;21.27;;;8.70;;
63050;SDS011;49136;47.416;19.402;2022-11-18T04:42:13;19.13;;;8.60;;
63050;SDS011;49136;47.416;19.402;2022-11-18T04:44:39;45.63;;;14.23;;
63050;SDS011;49136;47.416;19.402;2022-11-18T04:47:05;33.33;;;14.20;;
63050;SDS011;49136;47.416;19.402;2022-11-18T04:49:31;43.95;;;15.27;;
63050;SDS011;49136;47.416;19.402;2022-11-18T04:51:58;35.40;;;10.68;;
63050;SDS011;49136;47.416;19.402;2022-11-18T04:54:24;28.50;;;11.32;;
63050;SDS011;49136;47.416;19.402;2022-11-18T04:56:50;21.63;;;9.13;;
63050;SDS011;49136;47.416;19.402;2022-11-18T04:59:17;29.23;;;9.48;;
63050;SDS011;49136;47.416;19.402;2022-11-18T05:01:44;28.02;;;9.70;;
63050;SDS011;49136;47.416;19.402;2022-11-18T05:04:12;22.88;;;8.05;;
63050;SDS011;49136;47.416;19.402;2022-11-18T05:06:39;15.50;;;7.18;;
63050;SDS011;49136;47.416;19.402;2022-11-18T05:09:05;30.30;;;10.45;;
63050;SDS011;49136;47.416;19.402;2022-11-18T05:11:31;22.38;;;8.88;;
63050;SDS011;49136;47.416;19.402;2022-11-18T05:14:15;17.35;;;7.47;;
63050;SDS011;49136;47.416;19.402;2022-11-18T05:16:41;36.13;;;10.43;;
63050;SDS011;49136;47.416;19.402;2022-11-18T05:19:06;22.35;;;7.22;;
63050;SDS011;49136;47.416;19.402;2022-11-18T05:21:32;23.23;;;8.73;;
63050;SDS011;49136;47.416;19.402;2022-11-18T05:23:58;23.92;;;7.57;;
63050;SDS011;49136;47.416;19.402;2022-11-18T05:26:24;29.23;;;10.32;;
63050;SDS011;49136;47.416;19.402;2022-11-18T05:28:50;30.95;;;11.15;;
63050;SDS011;49136;47.416;19.402;2022-11-18T05:31:16;23.00;;;7.93;;
63050;SDS011;49136;47.416;19.402;2022-11-18T05:33:41;47.33;;;12.68;;
63050;SDS011;49136;47.416;19.402;2022-11-18T05:36:08;32.72;;;8.50;;
63050;SDS011;49136;47.416;19.402;2022-11-18T05:38:36;33.72;;;12.57;;
63050;SDS011;49136;47.416;19.402;2022-11-18T05:41:02;19.67;;;8.20;;
63050;SDS011;49136;47.416;19.402;2022-11-18T05:43:28;36.97;;;9.35;;
63050;SDS011;49136;47.416;19.402;2022-11-18T05:45:55;20.30;;;9.50;;
63050;SDS011;49136;47.416;19.402;2022-11-18T05:48:21;34.20;;;8.52;;
63050;SDS011;49136;47.416;19.402;2022-11-18T05:50:47;23.67;;;9.82;;
63050;SDS011;49136;47.416;19.402;2022-11-18T05:53:14;23.20;;;9.75;;
63050;SDS011;49136;47.416;19.402;2022-11-18T05:58:24;24.88;;;9.05;;
63050;SDS011;49136;47.416;19.402;2022-11-18T06:00:50;29.30;;;7.82;;
63050;SDS011;49136;47.416;19.402;2022-11-18T06:03:20;16.95;;;7.47;;
63050;SDS011;49136;47.416;19.402;2022-11-18T06:05:55;26.02;;;9.40;;
63050;SDS011;49136;47.416;19.402;2022-11-18T06:08:22;22.27;;;7.70;;
63050;SDS011;49136;47.416;19.402;2022-11-18T06:10:50;15.45;;;8.85;;
63050;SDS011;49136;47.416;19.402;2022-11-18T06:13:22;24.20;;;8.90;;
63050;SDS011;49136;47.416;19.402;2022-11-18T06:15:52;24.55;;;9.50;;
63050;SDS011;49136;47.416;19.402;2022-11-18T06:18:25;33.65;;;8.43;;
63050;SDS011;49136;47.416;19.402;2022-11-18T06:20:53;15.32;;;7.05;;
63050;SDS011;49136;47.416;19.402;2022-11-18T06:23:22;16.15;;;7.88;;
63050;SDS011;49136;47.416;19.402;2022-11-18T06:25:48;15.27;;;5.95;;
63050;SDS011;49136;47.416;19.402;2022-11-18T06:28:14;14.38;;;6.95;;
63050;SDS011;49136;47.416;19.402;2022-11-18T06:30:41;24.58;;;7.90;;
63050;SDS011;49136;47.416;19.402;2022-11-18T06:33:07;34.33;;;9.25;;
63050;SDS011;49136;47.416;19.402;2022-11-18T06:35:33;22.05;;;8.57;;
63050;SDS011;49136;47.416;19.402;2022-11-18T06:37:59;28.55;;;9.65;;
63050;SDS011;49136;47.416;19.402;2022-11-18T06:40:24;18.25;;;7.35;;
63050;SDS011;49136;47.416;19.402;2022-11-18T06:42:50;19.58;;;9.23;;
63050;SDS011;49136;47.416;19.402;2022-11-18T06:45:33;26.38;;;8.50;;
63050;SDS011;49136;47.416;19.402;2022-11-18T06:47:59;19.13;;;7.03;;
63050;SDS011;49136;47.416;19.402;2022-11-18T06:50:25;31.75;;;9.85;;
63050;SDS011;49136;47.416;19.402;2022-11-18T06:52:51;20.60;;;8.05;;
63050;SDS011;49136;47.416;19.402;2022-11-18T06:55:17;28.25;;;9.02;;
63050;SDS011;49136;47.416;19.402;2022-11-18T06:57:42;15.65;;;7.30;;
63050;SDS011;49136;47.416;19.402;2022-11-18T07:00:08;26.40;;;9.48;;
63050;SDS011;49136;47.416;19.402;2022-11-18T07:02:37;32.40;;;10.85;;
63050;SDS011;49136;47.416;19.402;2022-11-18T07:05:06;29.92;;;10.65;;
63050;SDS011;49136;47.416;19.402;2022-11-18T07:07:33;32.67;;;10.02;;
63050;SDS011;49136;47.416;19.402;2022-11-18T07:09:59;39.13;;;11.40;;
63050;SDS011;49136;47.416;19.402;2022-11-18T07:12:25;23.27;;;9.95;;
63050;SDS011;49136;47.416;19.402;2022-11-18T07:14:50;41.47;;;13.30;;
63050;SDS011;49136;47.416;19.402;2022-11-18T07:17:15;33.03;;;10.38;;
63050;SDS011;49136;47.416;19.402;2022-11-18T07:19:41;39.67;;;11.25;;
63050;SDS011;49136;47.416;19.402;2022-11-18T07:22:06;32.00;;;11.40;;
63050;SDS011;49136;47.416;19.402;2022-11-18T07:24:32;46.13;;;10.00;;
63050;SDS011;49136;47.416;19.402;2022-11-18T07:26:58;29.13;;;11.13;;
63050;SDS011;49136;47.416;19.402;2022-11-18T07:29:23;44.38;;;12.25;;
63050;SDS011;49136;47.416;19.402;2022-11-18T07:31:49;44.70;;;12.93;;
63050;SDS011;49136;47.416;19.402;2022-11-18T07:34:14;34.20;;;10.68;;
63050;SDS011;49136;47.416;19.402;2022-11-18T07:36:39;24.92;;;9.95;;
63050;SDS011;49136;47.416;19.402;2022-11-18T07:39:05;27.90;;;10.27;;
63050;SDS011;49136;47.416;19.402;2022-11-18T07:41:31;28.25;;;8.68;;
63050;SDS011;49136;47.416;19.402;2022-11-18T07:43:58;21.83;;;7.95;;
63050;SDS011;49136;47.416;19.402;2022-11-18T07:46:32;23.67;;;8.05;;
63050;SDS011;49136;47.416;19.402;2022-11-18T07:49:00;18.08;;;7.55;;
63050;SDS011;49136;47.416;19.402;2022-11-18T07:51:28;24.02;;;9.65;;
63050;SDS011;49136;47.416;19.402;2022-11-18T07:53:55;24.63;;;10.05;;
63050;SDS011;49136;47.416;19.402;2022-11-18T07:56:21;43.80;;;11.15;;
63050;SDS011;49136;47.416;19.402;2022-11-18T07:58:47;20.42;;;8.65;;
63050;SDS011;49136;47.416;19.402;2022-11-18T08:01:17;28.80;;;10.25;;
63050;SDS011;49136;47.416;19.402;2022-11-18T08:03:44;35.05;;;11.68;;
63050;SDS011;49136;47.416;19.402;2022-11-18T08:06:11;34.35;;;10.30;;
63050;SDS011;49136;47.416;19.402;2022-11-18T08:08:38;27.30;;;8.73;;
63050;SDS011;49136;47.416;19.402;2022-11-18T08:11:04;31.23;;;11.25;;
63050;SDS011;49136;47.416;19.402;2022-11-18T08:13:32;31.60;;;13.25;;
63050;SDS011;49136;47.416;19.402;2022-11-18T08:15:57;38.03;;;13.68;;
63050;SDS011;49136;47.416;19.402;2022-11-18T08:18:23;20.40;;;8.75;;
63050;SDS011;49136;47.416;19.402;2022-11-18T08:20:49;25.80;;;9.52;;
63050;SDS011;49136;47.416;19.402;2022-11-18T08:23:15;24.95;;;7.97;;
63050;SDS011;49136;47.416;19.402;2022-11-18T08:25:41;25.13;;;8.30;;
63050;SDS011;49136;47.416;19.402;2022-11-18T08:28:07;25.10;;;9.60;;
63050;SDS011;49136;47.416;19.402;2022-11-18T08:30:33;36.67;;;11.15;;
63050;SDS011;49136;47.416;19.402;2022-11-18T08:32:59;18.83;;;9.15;;
63050;SDS011;49136;47.416;19.402;2022-11-18T08:35:25;24.20;;;9.23;;
63050;SDS011;49136;47.416;19.402;2022-11-18T08:37:51;29.80;;;10.27;;
63050;SDS011;49136;47.416;19.402;2022-11-18T08:40:16;39.75;;;11.57;;
63050;SDS011;49136;47.416;19.402;2022-11-18T08:42:42;25.98;;;8.77;;
63050;SDS011;49136;47.416;19.402;2022-11-18T08:45:07;28.38;;;9.18;;
63050;SDS011;49136;47.416;19.402;2022-11-18T08:47:33;40.33;;;13.02;;
63050;SDS011;49136;47.416;19.402;2022-11-18T08:50:00;38.30;;;11.57;;
63050;SDS011;49136;47.416;19.402;2022-11-18T08:52:26;37.30;;;14.02;;
63050;SDS011;49136;47.416;19.402;2022-11-18T08:54:51;34.40;;;11.80;;
63050;SDS011;49136;47.416;19.402;2022-11-18T08:57:16;51.10;;;16.58;;
63050;SDS011;49136;47.416;19.402;2022-11-18T08:59:42;70.00;;;25.33;;
63050;SDS011;49136;47.416;19.402;2022-11-18T09:02:14;77.55;;;25.45;;
63050;SDS011;49136;47.416;19.402;2022-11-18T09:04:40;60.95;;;22.00;;
63050;SDS011;49136;47.416;19.402;2022-11-18T09:07:06;58.60;;;20.92;;
63050;SDS011;49136;47.416;19.402;2022-11-18T09:09:31;65.35;;;18.73;;
63050;SDS011;49136;47.416;19.402;2022-11-18T09:11:57;55.25;;;17.48;;
63050;SDS011;49136;47.416;19.402;2022-11-18T09:14:22;47.50;;;14.88;;
63050;SDS011;49136;47.416;19.402;2022-11-18T09:16:47;31.05;;;13.13;;
63050;SDS011;49136;47.416;19.402;2022-11-18T09:19:13;51.55;;;14.93;;
63050;SDS011;49136;47.416;19.402;2022-11-18T09:21:39;32.78;;;12.38;;
63050;SDS011;49136;47.416;19.402;2022-11-18T09:24:05;36.30;;;10.38;;
63050;SDS011;49136;47.416;19.402;2022-11-18T09:26:31;23.02;;;8.45;;
63050;SDS011;49136;47.416;19.402;2022-11-18T09:28:57;18.45;;;10.18;;
63050;SDS011;49136;47.416;19.402;2022-11-18T09:31:22;25.00;;;10.50;;
63050;SDS011;49136;47.416;19.402;2022-11-18T09:33:48;21.25;;;9.20;;
63050;SDS011;49136;47.416;19.402;2022-11-18T09:36:15;32.63;;;10.55;;
63050;SDS011;49136;47.416;19.402;2022-11-18T09:38:42;20.27;;;9.55;;
63050;SDS011;49136;47.416;19.402;2022-11-18T09:46:33;32.50;;;13.35;;
63050;SDS011;49136;47.416;19.402;2022-11-18T09:49:12;14.25;;;6.72;;
63050;SDS011;49136;47.416;19.402;2022-11-18T09:51:44;24.45;;;9.93;;
63050;SDS011;49136;47.416;19.402;2022-11-18T09:54:19;23.83;;;9.27;;
63050;SDS011;49136;47.416;19.402;2022-11-18T09:57:01;27.63;;;11.95;;
63050;SDS011;49136;47.416;19.402;2022-11-18T09:59:27;38.33;;;15.02;;
63050;SDS011;49136;47.416;19.402;2022-11-18T10:02:06;22.33;;;9.35;;
63050;SDS011;49136;47.416;19.402;2022-11-18T10:04:38;25.83;;;10.68;;
63050;SDS011;49136;47.416;19.402;2022-11-18T10:07:15;19.92;;;8.95;;
63050;SDS011;49136;47.416;19.402;2022-11-18T10:17:55;22.70;;;10.25;;
63050;SDS011;49136;47.416;19.402;2022-11-18T10:26:03;35.72;;;13.45;;
63050;SDS011;49136;47.416;19.402;2022-11-18T10:28:28;35.63;;;12.65;;
63050;SDS011;49136;47.416;19.402;2022-11-18T10:31:04;25.50;;;10.65;;
63050;SDS011;49136;47.416;19.402;2022-11-18T10:33:32;53.17;;;17.02;;
63050;SDS011;49136;47.416;19.402;2022-11-18T10:36:41;36.33;;;14.00;;
63050;SDS011;49136;47.416;19.402;2022-11-18T10:39:31;27.88;;;10.23;;
63050;SDS011;49136;47.416;19.402;2022-11-18T10:41:54;51.05;;;18.95;;
63050;SDS011;49136;47.416;19.402;2022-11-18T10:47:20;19.60;;;7.72;;
63050;SDS011;49136;47.416;19.402;2022-11-18T10:49:48;31.63;;;10.32;;
63050;SDS011;49136;47.416;19.402;2022-11-18T10:52:15;36.72;;;16.52;;
63050;SDS011;49136;47.416;19.402;2022-11-18T10:54:41;22.02;;;8.10;;
63050;SDS011;49136;47.416;19.402;2022-11-18T10:59:46;19.00;;;7.82;;
63050;SDS011;49136;47.416;19.402;2022-11-18T11:04:49;11.45;;;4.93;;
63050;SDS011;49136;47.416;19.402;2022-11-18T11:07:25;25.15;;;6.90;;
63050;SDS011;49136;47.416;19.402;2022-11-18T11:12:43;13.35;;;5.97;;
63050;SDS011;49136;47.416;19.402;2022-11-18T11:15:27;7.68;;;4.65;;
63050;SDS011;49136;47.416;19.402;2022-11-18T11:18:05;12.40;;;4.65;;
63050;SDS011;49136;47.416;19.402;2022-11-18T11:21:11;11.25;;;4.97;;
63050;SDS011;49136;47.416;19.402;2022-11-18T11:23:37;14.35;;;5.95;;
63050;SDS011;49136;47.416;19.402;2022-11-18T11:38:52;17.45;;;6.65;;
63050;SDS011;49136;47.416;19.402;2022-11-18T11:41:25;11.52;;;4.75;;
63050;SDS011;49136;47.416;19.402;2022-11-18T11:52:35;6.05;;;2.75;;
63050;SDS011;49136;47.416;19.402;2022-11-18T11:55:14;8.93;;;4.85;;
63050;SDS011;49136;47.416;19.402;2022-11-18T11:57:46;9.75;;;3.58;;
63050;SDS011;49136;47.416;19.402;2022-11-18T12:00:33;11.07;;;4.72;;
63050;SDS011;49136;47.416;19.402;2022-11-18T12:03:15;15.73;;;6.13;;
63050;SDS011;49136;47.416;19.402;2022-11-18T12:05:54;10.98;;;5.13;;
63050;SDS011;49136;47.416;19.402;2022-11-18T12:08:23;10.43;;;5.47;;
63050;SDS011;49136;47.416;19.402;2022-11-18T12:10:55;8.25;;;5.03;;
63050;SDS011;49136;47.416;19.402;2022-11-18T12:24:24;6.30;;;3.50;;
63050;SDS011;49136;47.416;19.402;2022-11-18T12:26:57;10.98;;;2.63;;
63050;SDS011;49136;47.416;19.402;2022-11-18T12:32:39;14.57;;;6.07;;
63050;SDS011;49136;47.416;19.402;2022-11-18T12:54:53;13.55;;;5.95;;
63050;SDS011;49136;47.416;19.402;2022-11-18T12:59:50;6.28;;;3.50;;
63050;SDS011;49136;47.416;19.402;2022-11-18T13:02:18;9.35;;;4.32;;
63050;SDS011;49136;47.416;19.402;2022-11-18T13:04:44;9.05;;;4.50;;
63050;SDS011;49136;47.416;19.402;2022-11-18T13:07:10;8.85;;;4.85;;
63050;SDS011;49136;47.416;19.402;2022-11-18T13:09:57;3.22;;;2.33;;
63050;SDS011;49136;47.416;19.402;2022-11-18T13:12:26;7.47;;;3.42;;
63050;SDS011;49136;47.416;19.402;2022-11-18T13:14:54;8.10;;;2.67;;
63050;SDS011;49136;47.416;19.402;2022-11-18T13:17:41;6.60;;;4.05;;
63050;SDS011;49136;47.416;19.402;2022-11-18T13:22:59;12.27;;;3.50;;
63050;SDS011;49136;47.416;19.402;2022-11-18T13:25:46;5.97;;;2.97;;
63050;SDS011;49136;47.416;19.402;2022-11-18T13:28:19;4.88;;;2.42;;
63050;SDS011;49136;47.416;19.402;2022-11-18T13:33:42;4.60;;;3.33;;
63050;SDS011;49136;47.416;19.402;2022-11-18T13:36:21;3.80;;;2.50;;
63050;SDS011;49136;47.416;19.402;2022-11-18T13:38:58;8.98;;;3.80;;
63050;SDS011;49136;47.416;19.402;2022-11-18T13:41:26;5.25;;;3.05;;
63050;SDS011;49136;47.416;19.402;2022-11-18T13:46:42;16.13;;;5.38;;
63050;SDS011;49136;47.416;19.402;2022-11-18T13:49:12;9.27;;;3.83;;
63050;SDS011;49136;47.416;19.402;2022-11-18T13:51:41;17.25;;;4.55;;
63050;SDS011;49136;47.416;19.402;2022-11-18T13:54:09;15.63;;;6.00;;
63050;SDS011;49136;47.416;19.402;2022-11-18T13:56:37;15.32;;;7.40;;
63050;SDS011;49136;47.416;19.402;2022-11-18T13:59:04;15.93;;;7.25;;
63050;SDS011;49136;47.416;19.402;2022-11-18T14:01:33;12.07;;;6.25;;
63050;SDS011;49136;47.416;19.402;2022-11-18T14:04:02;13.35;;;4.90;;
63050;SDS011;49136;47.416;19.402;2022-11-18T14:06:32;10.32;;;4.63;;
63050;SDS011;49136;47.416;19.402;2022-11-18T14:11:45;6.47;;;3.20;;
63050;SDS011;49136;47.416;19.402;2022-11-18T14:14:37;11.20;;;3.60;;
63050;SDS011;49136;47.416;19.402;2022-11-18T14:19:43;9.20;;;4.70;;
63050;SDS011;49136;47.416;19.402;2022-11-18T14:22:28;13.75;;;5.15;;
63050;SDS011;49136;47.416;19.402;2022-11-18T14:24:58;8.50;;;4.88;;
63050;SDS011;49136;47.416;19.402;2022-11-18T14:27:45;15.18;;;6.50;;
63050;SDS011;49136;47.416;19.402;2022-11-18T14:30:33;34.45;;;11.43;;
63050;SDS011;49136;47.416;19.402;2022-11-18T14:35:38;30.85;;;11.93;;
63050;SDS011;49136;47.416;19.402;2022-11-18T14:38:14;54.55;;;12.40;;
63050;SDS011;49136;47.416;19.402;2022-11-18T14:40:57;34.67;;;11.73;;
63050;SDS011;49136;47.416;19.402;2022-11-18T14:43:25;44.80;;;14.00;;
63050;SDS011;49136;47.416;19.402;2022-11-18T14:45:54;43.95;;;16.80;;
63050;SDS011;49136;47.416;19.402;2022-11-18T14:48:23;38.55;;;16.67;;
63050;SDS011;49136;47.416;19.402;2022-11-18T14:50:50;65.28;;;20.33;;
63050;SDS011;49136;47.416;19.402;2022-11-18T14:53:16;58.25;;;18.48;;
63050;SDS011;49136;47.416;19.402;2022-11-18T14:55:43;58.42;;;18.40;;
63050;SDS011;49136;47.416;19.402;2022-11-18T14:58:12;47.55;;;15.35;;
63050;SDS011;49136;47.416;19.402;2022-11-18T15:00:40;29.65;;;13.02;;
63050;SDS011;49136;47.416;19.402;2022-11-18T15:03:06;27.05;;;10.20;;
63050;SDS011;49136;47.416;19.402;2022-11-18T15:05:32;19.40;;;9.25;;
63050;SDS011;49136;47.416;19.402;2022-11-18T15:07:57;23.52;;;8.68;;
63050;SDS011;49136;47.416;19.402;2022-11-18T15:10:22;19.42;;;8.80;;
63050;SDS011;49136;47.416;19.402;2022-11-18T15:12:48;22.17;;;9.38;;
63050;SDS011;49136;47.416;19.402;2022-11-18T15:15:13;20.27;;;8.32;;
63050;SDS011;49136;47.416;19.402;2022-11-18T15:17:39;16.73;;;7.75;;
63050;SDS011;49136;47.416;19.402;2022-11-18T15:20:04;18.02;;;9.30;;
63050;SDS011;49136;47.416;19.402;2022-11-18T15:22:31;21.15;;;8.27;;
63050;SDS011;49136;47.416;19.402;2022-11-18T15:24:57;14.90;;;6.63;;
63050;SDS011;49136;47.416;19.402;2022-11-18T15:27:23;21.85;;;9.00;;
63050;SDS011;49136;47.416;19.402;2022-11-18T15:29:48;16.00;;;6.95;;
63050;SDS011;49136;47.416;19.402;2022-11-18T15:32:14;24.50;;;9.45;;
63050;SDS011;49136;47.416;19.402;2022-11-18T15:34:40;24.88;;;8.40;;
63050;SDS011;49136;47.416;19.402;2022-11-18T15:37:09;16.65;;;6.90;;
63050;SDS011;49136;47.416;19.402;2022-11-18T15:39:36;14.45;;;6.35;;
63050;SDS011;49136;47.416;19.402;2022-11-18T15:42:01;16.25;;;8.13;;
63050;SDS011;49136;47.416;19.402;2022-11-18T15:44:27;14.50;;;6.05;;
63050;SDS011;49136;47.416;19.402;2022-11-18T15:46:52;14.65;;;7.35;;
63050;SDS011;49136;47.416;19.402;2022-11-18T15:49:17;13.18;;;5.00;;
63050;SDS011;49136;47.416;19.402;2022-11-18T15:51:43;29.67;;;10.63;;
63050;SDS011;49136;47.416;19.402;2022-11-18T15:54:08;20.25;;;8.23;;
63050;SDS011;49136;47.416;19.402;2022-11-18T15:56:34;27.00;;;11.50;;
63050;SDS011;49136;47.416;19.402;2022-11-18T15:59:00;22.02;;;10.70;;
63050;SDS011;49136;47.416;19.402;2022-11-18T16:01:29;17.95;;;7.53;;
63050;SDS011;49136;47.416;19.402;2022-11-18T16:04:00;27.58;;;10.10;;
63050;SDS011;49136;47.416;19.402;2022-11-18T16:06:26;30.73;;;12.70;;
63050;SDS011;49136;47.416;19.402;2022-11-18T16:08:52;22.25;;;9.05;;
63050;SDS011;49136;47.416;19.402;2022-11-18T16:11:18;18.83;;;6.82;;
63050;SDS011;49136;47.416;19.402;2022-11-18T16:14:05;11.20;;;5.43;;
63050;SDS011;49136;47.416;19.402;2022-11-18T16:16:33;12.65;;;5.07;;
63050;SDS011;49136;47.416;19.402;2022-11-18T16:19:01;10.07;;;4.60;;
63050;SDS011;49136;47.416;19.402;2022-11-18T16:21:30;10.27;;;3.28;;
63050;SDS011;49136;47.416;19.402;2022-11-18T16:23:57;6.03;;;3.40;;
63050;SDS011;49136;47.416;19.402;2022-11-18T16:26:24;6.80;;;4.25;;
63050;SDS011;49136;47.416;19.402;2022-11-18T16:28:50;22.02;;;7.10;;
63050;SDS011;49136;47.416;19.402;2022-11-18T16:31:15;20.67;;;9.88;;
63050;SDS011;49136;47.416;19.402;2022-11-18T16:34:03;14.32;;;6.70;;
63050;SDS011;49136;47.416;19.402;2022-11-18T16:36:30;16.95;;;7.47;;
63050;SDS011;49136;47.416;19.402;2022-11-18T16:38:55;14.40;;;5.65;;